createdAt,value
2019-03-25T00:01:34.915Z,99842.00
2019-03-25T00:04:06.614Z,99849.00
2019-03-25T00:06:38.121Z,99849.00
2019-03-25T00:09:10.317Z,99844.00
2019-03-25T00:11:41.722Z,99841.00
2019-03-25T00:14:13.291Z,99837.00
2019-03-25T00:16:44.859Z,99831.00
2019-03-25T00:19:16.272Z,99825.00
2019-03-25T00:21:47.662Z,99825.00
2019-03-25T00:24:19.036Z,99824.00
2019-03-25T00:26:50.424Z,99821.00
2019-03-25T00:29:21.901Z,99817.00
2019-03-25T00:31:53.482Z,99818.00
2019-03-25T00:34:24.928Z,99813.00
2019-03-25T00:36:56.306Z,99810.00
2019-03-25T00:39:27.660Z,99808.00
2019-03-25T00:41:58.994Z,99806.00
2019-03-25T00:44:30.477Z,99804.00
2019-03-25T00:47:02.184Z,99804.00
2019-03-25T00:49:33.583Z,99795.00
2019-03-25T00:52:05.123Z,99785.00
2019-03-25T00:54:36.501Z,99788.00
2019-03-25T00:57:08.067Z,99788.00
2019-03-25T00:59:39.424Z,99775.00
2019-03-25T01:02:10.930Z,99772.00
2019-03-25T01:04:42.354Z,99767.00
2019-03-25T01:07:13.844Z,99768.00
2019-03-25T01:09:45.233Z,99770.00
2019-03-25T01:12:16.707Z,99769.00
2019-03-25T01:14:48.152Z,99768.00
2019-03-25T01:17:19.639Z,99768.00
2019-03-25T01:19:50.997Z,99766.00
2019-03-25T01:22:22.403Z,99772.00
2019-03-25T01:25:01.829Z,99756.00
2019-03-25T01:27:27.067Z,99766.00
2019-03-25T01:29:58.429Z,99766.00
2019-03-25T01:32:29.829Z,99758.00
2019-03-25T01:35:01.208Z,99757.00
2019-03-25T01:37:34.398Z,99761.00
2019-03-25T01:40:06.892Z,99759.00
2019-03-25T01:42:38.546Z,99765.00
2019-03-25T01:45:09.938Z,99746.00
2019-03-25T01:47:41.320Z,99748.00
2019-03-25T01:50:12.858Z,99743.00
2019-03-25T01:52:44.364Z,99719.00
2019-03-25T01:55:15.729Z,99723.00
2019-03-25T01:57:47.176Z,99717.00
2019-03-25T02:00:18.948Z,99712.00
2019-03-25T02:02:50.432Z,99705.00
2019-03-25T02:05:21.803Z,99701.00
2019-03-25T02:07:53.383Z,99698.00
2019-03-25T02:10:24.940Z,99693.00
2019-03-25T02:12:56.412Z,99692.00
2019-03-25T02:15:27.871Z,99692.00
2019-03-25T02:17:59.410Z,99677.00
2019-03-25T02:20:30.769Z,99665.00
2019-03-25T02:23:02.408Z,99668.00
2019-03-25T02:25:33.832Z,99663.00
2019-03-25T02:28:05.360Z,99668.00
2019-03-25T02:30:36.908Z,99668.00
2019-03-25T02:33:08.366Z,99660.00
2019-03-25T02:35:39.697Z,99653.00
2019-03-25T02:38:11.103Z,99658.00
2019-03-25T02:40:42.482Z,99649.00
2019-03-25T02:43:14.036Z,99645.00
2019-03-25T02:45:45.434Z,99646.00
2019-03-25T02:48:16.822Z,99641.00
2019-03-25T02:50:48.309Z,99628.00
2019-03-25T02:53:19.751Z,99632.00
2019-03-25T02:55:51.384Z,99624.00
2019-03-25T02:58:22.863Z,99631.00
2019-03-25T03:00:54.256Z,99611.00
2019-03-25T03:03:25.630Z,99609.00
2019-03-25T03:05:56.989Z,99599.00
2019-03-25T03:08:28.371Z,99601.00
2019-03-25T03:10:59.874Z,99602.00
2019-03-25T03:13:31.392Z,99595.00
2019-03-25T03:16:02.765Z,99596.00
2019-03-25T03:18:34.146Z,99588.00
2019-03-25T03:21:06.026Z,99587.00
2019-03-25T03:23:37.561Z,99582.00
2019-03-25T03:26:09.039Z,99574.00
2019-03-25T03:28:40.418Z,99576.00
2019-03-25T03:31:11.786Z,99578.00
2019-03-25T03:33:43.180Z,99576.00
2019-03-25T03:36:14.571Z,99569.00
2019-03-25T03:38:45.980Z,99575.00
2019-03-25T03:41:17.481Z,99569.00
2019-03-25T03:43:48.891Z,99561.00
2019-03-25T03:46:20.345Z,99564.00
2019-03-25T03:48:51.853Z,99567.00
2019-03-25T03:51:23.863Z,99554.00
2019-03-25T03:53:55.590Z,99552.00
2019-03-25T03:56:27.386Z,99551.00
2019-03-25T03:58:58.854Z,99550.00
2019-03-25T04:01:30.311Z,99550.00
2019-03-25T04:04:01.691Z,99551.00
2019-03-25T04:06:33.116Z,99545.00
2019-03-25T04:09:05.839Z,99544.00
2019-03-25T04:11:37.304Z,99533.00
2019-03-25T04:14:08.706Z,99536.00
2019-03-25T04:16:40.228Z,99525.00
2019-03-25T04:19:11.659Z,99525.00
2019-03-25T04:21:43.105Z,99525.00
2019-03-25T04:24:14.526Z,99520.00
2019-03-25T04:26:45.880Z,99522.00
2019-03-25T04:29:17.395Z,99521.00
2019-03-25T04:31:48.824Z,99525.00
2019-03-25T04:34:20.191Z,99520.00
2019-03-25T04:36:51.679Z,99533.00
2019-03-25T04:39:23.238Z,99519.00
2019-03-25T04:41:54.624Z,99521.00
2019-03-25T04:44:25.994Z,99525.00
2019-03-25T04:46:57.388Z,99523.00
2019-03-25T04:49:28.970Z,99519.00
2019-03-25T04:52:00.378Z,99517.00
2019-03-25T04:54:31.863Z,99515.00
2019-03-25T04:57:03.359Z,99508.00
2019-03-25T04:59:35.087Z,99502.00
2019-03-25T05:02:06.560Z,99497.00
2019-03-25T05:04:38.052Z,99497.00
2019-03-25T05:07:09.492Z,99496.00
2019-03-25T05:09:40.959Z,99479.00
2019-03-25T05:12:12.566Z,99482.00
2019-03-25T05:14:44.062Z,99475.00
2019-03-25T05:17:15.509Z,99471.00
2019-03-25T05:19:46.879Z,99457.00
2019-03-25T05:22:18.271Z,99456.00
2019-03-25T05:24:49.630Z,99452.00
2019-03-25T05:27:21.009Z,99445.00
2019-03-25T05:29:52.409Z,99440.00
2019-03-25T05:32:24.013Z,99435.00
2019-03-25T05:34:55.378Z,99435.00
2019-03-25T05:37:26.967Z,99418.00
2019-03-25T05:39:58.446Z,99420.00
2019-03-25T05:42:29.931Z,99400.00
2019-03-25T05:45:01.327Z,99391.00
2019-03-25T05:47:32.826Z,99403.00
2019-03-25T05:50:04.425Z,99394.00
2019-03-25T05:52:35.970Z,99388.00
2019-03-25T05:55:08.541Z,99392.00
2019-03-25T05:57:39.940Z,99390.00
2019-03-25T06:00:11.728Z,99391.00
2019-03-25T06:02:43.096Z,99392.00
2019-03-25T06:05:15.010Z,99385.00
2019-03-25T06:07:46.442Z,99385.00
2019-03-25T06:10:18.198Z,99397.00
2019-03-25T06:12:49.587Z,99389.00
2019-03-25T06:15:21.331Z,99405.00
2019-03-25T06:17:52.939Z,99391.00
2019-03-25T06:20:24.468Z,99390.00
2019-03-25T06:22:55.874Z,99385.00
2019-03-25T06:25:27.351Z,99389.00
2019-03-25T06:27:59.181Z,99382.00
2019-03-25T06:30:30.675Z,99382.00
2019-03-25T06:33:11.960Z,99375.00
2019-03-25T06:35:35.344Z,99377.00
2019-03-25T06:38:06.739Z,99379.00
2019-03-25T06:40:38.189Z,99375.00
2019-03-25T06:43:09.569Z,99361.00
2019-03-25T06:45:41.134Z,99367.00
2019-03-25T06:48:12.610Z,99378.00
2019-03-25T06:50:43.975Z,99377.00
2019-03-25T06:53:15.426Z,99374.00
2019-03-25T06:55:46.872Z,99374.00
2019-03-25T06:58:18.255Z,99365.00
2019-03-25T07:00:49.778Z,99382.00
2019-03-25T07:03:21.159Z,99378.00
2019-03-25T07:05:52.751Z,99377.00
2019-03-25T07:08:24.170Z,99373.00
2019-03-25T07:10:55.744Z,99371.00
2019-03-25T07:13:27.454Z,99361.00
2019-03-25T07:15:58.956Z,99361.00
2019-03-25T07:18:30.351Z,99353.00
2019-03-25T07:21:01.726Z,99358.00
2019-03-25T07:23:33.225Z,99355.00
2019-03-25T07:26:04.596Z,99355.00
2019-03-25T07:28:38.566Z,99352.00
2019-03-25T07:31:09.297Z,99349.00
2019-03-25T07:33:40.756Z,99347.00
2019-03-25T07:36:30.972Z,99342.00
2019-03-25T07:39:02.373Z,99348.00
2019-03-25T07:41:33.838Z,99361.00
2019-03-25T07:44:05.284Z,99356.00
2019-03-25T07:46:36.619Z,99362.00
2019-03-25T07:49:08.164Z,99370.00
2019-03-25T07:51:39.530Z,99379.00
2019-03-25T07:54:11.080Z,99373.00
2019-03-25T07:56:42.633Z,99371.00
2019-03-25T07:59:14.040Z,99393.00
2019-03-25T08:01:45.363Z,99389.00
2019-03-25T08:04:17.157Z,99384.00
2019-03-25T08:06:48.514Z,99389.00
2019-03-25T08:09:20.055Z,99386.00
2019-03-25T08:11:51.552Z,99390.00
2019-03-25T08:14:23.133Z,99391.00
2019-03-25T08:16:54.563Z,99386.00
2019-03-25T08:19:25.957Z,99387.00
2019-03-25T08:21:57.310Z,99395.00
2019-03-25T08:24:28.692Z,99390.00
2019-03-25T08:27:00.251Z,99388.00
2019-03-25T08:29:31.720Z,99386.00
2019-03-25T08:32:03.173Z,99390.00
2019-03-25T08:34:34.588Z,99387.00
2019-03-25T08:37:06.154Z,99392.00
2019-03-25T08:39:39.494Z,99391.00
2019-03-25T08:42:10.870Z,99404.00
2019-03-25T08:44:42.407Z,99399.00
2019-03-25T08:47:13.837Z,99403.00
2019-03-25T08:49:45.297Z,99414.00
2019-03-25T08:52:16.684Z,99407.00
2019-03-25T08:54:48.091Z,99415.00
2019-03-25T08:57:19.545Z,99427.00
2019-03-25T08:59:51.048Z,99431.00
2019-03-25T09:02:22.578Z,99428.00
2019-03-25T09:04:54.225Z,99431.00
2019-03-25T09:07:25.596Z,99431.00
2019-03-25T09:09:57.031Z,99438.00
2019-03-25T09:12:28.493Z,99435.00
2019-03-25T09:14:59.886Z,99437.00
2019-03-25T09:17:31.338Z,99425.00
2019-03-25T09:20:02.808Z,99434.00
2019-03-25T09:22:34.268Z,99437.00
2019-03-25T09:25:06.378Z,99445.00
2019-03-25T09:27:37.740Z,99435.00
2019-03-25T09:30:10.855Z,99437.00
2019-03-25T09:32:42.403Z,99438.00
2019-03-25T09:35:14.425Z,99435.00
2019-03-25T09:37:45.787Z,99441.00
2019-03-25T09:40:17.585Z,99451.00
2019-03-25T09:42:49.043Z,99443.00
2019-03-25T09:45:20.766Z,99433.00
2019-03-25T09:47:52.317Z,99441.00
2019-03-25T09:50:25.331Z,99443.00
2019-03-25T09:52:56.714Z,99441.00
2019-03-25T09:55:28.259Z,99444.00
2019-03-25T09:57:59.613Z,99447.00
2019-03-25T10:00:33.949Z,99456.00
2019-03-25T10:03:05.411Z,99449.00
2019-03-25T10:05:37.065Z,99445.00
2019-03-25T10:08:08.537Z,99453.00
2019-03-25T10:10:40.158Z,99457.00
2019-03-25T10:13:11.609Z,99454.00
2019-03-25T10:15:43.129Z,99451.00
2019-03-25T10:18:15.962Z,99458.00
2019-03-25T10:20:47.412Z,99470.00
2019-03-25T10:23:18.882Z,99467.00
2019-03-25T10:25:50.488Z,99472.00
2019-03-25T10:28:21.991Z,99472.00
2019-03-25T10:30:53.420Z,99465.00
2019-03-25T10:33:43.850Z,99465.00
2019-03-25T10:36:15.381Z,99455.00
2019-03-25T10:38:46.855Z,99452.00
2019-03-25T10:41:18.268Z,99456.00
2019-03-25T10:43:49.651Z,99464.00
2019-03-25T10:46:21.234Z,99467.00
2019-03-25T10:48:52.605Z,99465.00
2019-03-25T10:51:23.994Z,99471.00
2019-03-25T10:53:55.385Z,99453.00
2019-03-25T10:56:26.908Z,99460.00
2019-03-25T10:58:58.632Z,99457.00
2019-03-25T11:01:30.145Z,99460.00
2019-03-25T11:04:01.575Z,99456.00
2019-03-25T11:06:32.991Z,99445.00
2019-03-25T11:09:06.708Z,99439.00
2019-03-25T11:11:38.214Z,99442.00
2019-03-25T11:14:09.660Z,99429.00
2019-03-25T11:16:41.349Z,99434.00
2019-03-25T11:19:12.792Z,99440.00
2019-03-25T11:21:44.342Z,99441.00
2019-03-25T11:24:15.754Z,99433.00
2019-03-25T11:26:47.260Z,99433.00
2019-03-25T11:29:18.650Z,99445.00
2019-03-25T11:31:50.050Z,99446.00
2019-03-25T11:34:40.199Z,99370.00
2019-03-25T11:37:13.204Z,99445.00
2019-03-25T11:39:44.631Z,99443.00
2019-03-25T11:42:16.126Z,99443.00
2019-03-25T11:44:47.625Z,99438.00
2019-03-25T11:47:19.191Z,99434.00
2019-03-25T11:49:50.714Z,99439.00
2019-03-25T11:52:22.212Z,99435.00
2019-03-25T11:54:53.589Z,99425.00
2019-03-25T11:57:25.134Z,99425.00
2019-03-25T11:59:56.580Z,99422.00
2019-03-25T12:02:27.998Z,99436.00
2019-03-25T12:04:59.371Z,99431.00
2019-03-25T12:07:31.881Z,99424.00
2019-03-25T12:10:03.566Z,99427.00
2019-03-25T12:12:34.986Z,99428.00
2019-03-25T12:15:07.130Z,99428.00
2019-03-25T12:17:38.626Z,99429.00
2019-03-25T12:20:10.432Z,99432.00
2019-03-25T12:22:41.898Z,99424.00
2019-03-25T12:25:13.458Z,99420.00
2019-03-25T12:27:44.972Z,99421.00
2019-03-25T12:30:16.763Z,99411.00
2019-03-25T12:32:48.258Z,99416.00
2019-03-25T12:35:19.596Z,99412.00
2019-03-25T12:37:51.115Z,99409.00
2019-03-25T12:40:22.560Z,99412.00
2019-03-25T12:42:54.078Z,99416.00
2019-03-25T12:45:25.445Z,99407.00
2019-03-25T12:47:56.928Z,99423.00
2019-03-25T12:50:28.491Z,99409.00
2019-03-25T12:53:00.043Z,99414.00
2019-03-25T12:55:32.731Z,99413.00
2019-03-25T12:58:04.204Z,99408.00
2019-03-25T13:00:42.619Z,99413.00
2019-03-25T13:03:14.213Z,99413.00
2019-03-25T13:05:45.679Z,99411.00
2019-03-25T13:08:17.092Z,99410.00
2019-03-25T13:10:48.488Z,99408.00
2019-03-25T13:13:19.861Z,99415.00
2019-03-25T13:15:51.414Z,99418.00
2019-03-25T13:18:22.800Z,99423.00
2019-03-25T13:20:54.179Z,99417.00
2019-03-25T13:23:25.580Z,99429.00
2019-03-25T13:25:57.128Z,99436.00
2019-03-25T13:28:28.625Z,99441.00
2019-03-25T13:30:59.991Z,99441.00
2019-03-25T13:33:31.593Z,99452.00
2019-03-25T13:36:02.973Z,99456.00
2019-03-25T13:38:34.450Z,99476.00
2019-03-25T13:41:05.815Z,99472.00
2019-03-25T13:43:37.190Z,99468.00
2019-03-25T13:46:08.653Z,99471.00
2019-03-25T13:48:40.125Z,99480.00
2019-03-25T13:51:11.643Z,99484.00
2019-03-25T13:53:43.081Z,99489.00
2019-03-25T13:56:16.039Z,99481.00
2019-03-25T13:58:47.508Z,99489.00
2019-03-25T14:01:18.878Z,99497.00
2019-03-25T14:03:50.273Z,99499.00
2019-03-25T14:06:21.643Z,99496.00
2019-03-25T14:08:53.087Z,99504.00
2019-03-25T14:11:24.482Z,99505.00
2019-03-25T14:13:55.981Z,99511.00
2019-03-25T14:16:27.501Z,99515.00
2019-03-25T14:18:58.980Z,99521.00
2019-03-25T14:21:30.604Z,99525.00
2019-03-25T14:24:02.019Z,99520.00
2019-03-25T14:26:33.440Z,99521.00
2019-03-25T14:29:05.004Z,99521.00
2019-03-25T14:31:36.467Z,99532.00
2019-03-25T14:34:07.971Z,99543.00
2019-03-25T14:36:39.389Z,99535.00
2019-03-25T14:39:10.866Z,99531.00
2019-03-25T14:41:42.270Z,99542.00
2019-03-25T14:44:13.732Z,99533.00
2019-03-25T14:46:45.218Z,99533.00
2019-03-25T14:49:16.650Z,99538.00
2019-03-25T14:51:48.042Z,99544.00
2019-03-25T14:54:19.437Z,99538.00
2019-03-25T14:56:50.946Z,99540.00
2019-03-25T14:59:22.366Z,99551.00
2019-03-25T15:01:54.659Z,99545.00
2019-03-25T15:04:26.077Z,99550.00
2019-03-25T15:06:57.549Z,99539.00
2019-03-25T15:09:28.913Z,99549.00
2019-03-25T15:12:00.355Z,99557.00
2019-03-25T15:14:33.409Z,99547.00
2019-03-25T15:17:05.008Z,99550.00
2019-03-25T15:19:36.381Z,99546.00
2019-03-25T15:22:07.779Z,99557.00
2019-03-25T15:24:39.244Z,99563.00
2019-03-25T15:27:10.690Z,99560.00
2019-03-25T15:29:42.260Z,99572.00
2019-03-25T15:32:13.680Z,99570.00
2019-03-25T15:34:45.159Z,99586.00
2019-03-25T15:37:16.693Z,99594.00
2019-03-25T15:39:48.286Z,99594.00
2019-03-25T15:42:19.712Z,99596.00
2019-03-25T15:44:51.229Z,99607.00
2019-03-25T15:47:22.827Z,99607.00
2019-03-25T15:49:54.400Z,99614.00
2019-03-25T15:52:25.818Z,99614.00
2019-03-25T15:54:57.315Z,99617.00
2019-03-25T15:57:28.771Z,99620.00
2019-03-25T16:00:00.423Z,99617.00
2019-03-25T16:02:31.850Z,99624.00
2019-03-25T16:05:03.346Z,99621.00
2019-03-25T16:07:34.747Z,99627.00
2019-03-25T16:10:07.188Z,99638.00
2019-03-25T16:12:38.735Z,99638.00
2019-03-25T16:15:12.811Z,99636.00
2019-03-25T16:17:44.442Z,99639.00
2019-03-25T16:20:16.258Z,99641.00
2019-03-25T16:22:47.778Z,99641.00
2019-03-25T16:25:29.244Z,99643.00
2019-03-25T16:28:00.706Z,99638.00
2019-03-25T16:30:34.095Z,99644.00
2019-03-25T16:33:05.550Z,99645.00
2019-03-25T16:35:36.973Z,99649.00
2019-03-25T16:38:08.335Z,99653.00
2019-03-25T16:40:39.805Z,99656.00
2019-03-25T16:43:11.184Z,99661.00
2019-03-25T16:45:43.785Z,99667.00
2019-03-25T16:48:15.170Z,99678.00
2019-03-25T16:50:46.639Z,99678.00
2019-03-25T16:53:18.333Z,99710.00
2019-03-25T16:55:49.833Z,99729.00
2019-03-25T16:58:21.299Z,99735.00
2019-03-25T17:00:52.754Z,99735.00
2019-03-25T17:03:24.163Z,99742.00
2019-03-25T17:05:55.592Z,99754.00
2019-03-25T17:08:26.960Z,99751.00
2019-03-25T17:10:58.405Z,99755.00
2019-03-25T17:13:29.815Z,99765.00
2019-03-25T17:16:01.294Z,99768.00
2019-03-25T17:18:32.754Z,99777.00
2019-03-25T17:21:04.294Z,99790.00
2019-03-25T17:23:35.766Z,99784.00
2019-03-25T17:26:09.010Z,99791.00
2019-03-25T17:28:40.407Z,99800.00
2019-03-25T17:31:20.527Z,99808.00
2019-03-25T17:33:45.120Z,99800.00
2019-03-25T17:36:16.553Z,99804.00
2019-03-25T17:38:48.062Z,99812.00
2019-03-25T17:41:19.548Z,99822.00
2019-03-25T17:43:50.963Z,99821.00
2019-03-25T17:46:22.326Z,99830.00
2019-03-25T17:48:53.801Z,99831.00
2019-03-25T17:51:25.182Z,99842.00
2019-03-25T17:53:58.244Z,99844.00
2019-03-25T17:56:29.775Z,99853.00
2019-03-25T17:59:01.167Z,99860.00
2019-03-25T18:01:36.985Z,99863.00
2019-03-25T18:04:08.366Z,99873.00
2019-03-25T18:06:39.745Z,99886.00
2019-03-25T18:09:12.188Z,99886.00
2019-03-25T18:11:43.602Z,99895.00
2019-03-25T18:14:15.144Z,99895.00
2019-03-25T18:16:46.704Z,99900.00
2019-03-25T18:19:19.281Z,99908.00
2019-03-25T18:21:50.807Z,99909.00
2019-03-25T18:24:22.185Z,99925.00
2019-03-25T18:26:53.779Z,99935.00
2019-03-25T18:29:25.290Z,99938.00
2019-03-25T18:31:56.782Z,99937.00
2019-03-25T18:34:28.244Z,99951.00
2019-03-25T18:36:59.706Z,99948.00
2019-03-25T18:39:32.175Z,99941.00
2019-03-25T18:42:03.844Z,99953.00
2019-03-25T18:44:35.341Z,99957.00
2019-03-25T18:47:06.938Z,99961.00
2019-03-25T18:49:38.304Z,99967.00
2019-03-25T18:52:09.817Z,99968.00
2019-03-25T18:54:41.353Z,99979.00
2019-03-25T18:57:12.823Z,99982.00
2019-03-25T18:59:44.327Z,99978.00
2019-03-25T19:02:15.832Z,99991.00
2019-03-25T19:04:47.513Z,99998.00
2019-03-25T19:07:19.138Z,99998.00
2019-03-25T19:09:53.586Z,100006.00
2019-03-25T19:12:25.152Z,100007.00
2019-03-25T19:14:56.623Z,100008.00
2019-03-25T19:17:28.086Z,100012.00
2019-03-25T19:19:59.461Z,100008.00
2019-03-25T19:22:31.056Z,100013.00
2019-03-25T19:25:02.503Z,100028.00
2019-03-25T19:27:34.037Z,100023.00
2019-03-25T19:30:07.015Z,100028.00
2019-03-25T19:32:38.421Z,100034.00
2019-03-25T19:35:11.671Z,100044.00
2019-03-25T19:37:43.196Z,100044.00
2019-03-25T19:40:16.031Z,100056.00
2019-03-25T19:42:47.487Z,100049.00
2019-03-25T19:45:18.986Z,100059.00
2019-03-25T19:47:50.453Z,100054.00
2019-03-25T19:50:22.076Z,100058.00
2019-03-25T19:52:53.583Z,100054.00
2019-03-25T19:55:28.338Z,100061.00
2019-03-25T19:57:59.744Z,100062.00
2019-03-25T20:00:41.974Z,100063.00
2019-03-25T20:03:13.510Z,100068.00
2019-03-25T20:05:44.926Z,100074.00
2019-03-25T20:08:16.572Z,100069.00
2019-03-25T20:10:47.993Z,100067.00
2019-03-25T20:13:21.245Z,100077.00
2019-03-25T20:15:52.637Z,100080.00
2019-03-25T20:18:24.096Z,100088.00
2019-03-25T20:20:55.461Z,100092.00
2019-03-25T20:23:26.922Z,100091.00
2019-03-25T20:25:58.481Z,100094.00
2019-03-25T20:28:29.849Z,100092.00
2019-03-25T20:31:01.320Z,100109.00
2019-03-25T20:33:32.720Z,100120.00
2019-03-25T20:36:04.297Z,100121.00
2019-03-25T20:38:35.761Z,100122.00
2019-03-25T20:41:07.138Z,100120.00
2019-03-25T20:43:38.576Z,100119.00
2019-03-25T20:46:09.994Z,100122.00
2019-03-25T20:48:41.392Z,100135.00
2019-03-25T20:51:14.429Z,100141.00
2019-03-25T20:53:45.887Z,100146.00
2019-03-25T20:56:17.347Z,100147.00
2019-03-25T20:58:49.830Z,100150.00
2019-03-25T21:01:21.262Z,100158.00
2019-03-25T21:03:52.694Z,100157.00
2019-03-25T21:06:24.184Z,100162.00
2019-03-25T21:08:55.726Z,100165.00
2019-03-25T21:11:27.106Z,100157.00
2019-03-25T21:14:17.427Z,100053.00
2019-03-25T21:16:48.935Z,100172.00
2019-03-25T21:19:20.367Z,100176.00
2019-03-25T21:21:51.762Z,100183.00
2019-03-25T21:24:23.188Z,100172.00
2019-03-25T21:26:54.534Z,100176.00
2019-03-25T21:29:27.524Z,100171.00
2019-03-25T21:31:59.062Z,100175.00
2019-03-25T21:34:30.568Z,100184.00
2019-03-25T21:37:01.943Z,100193.00
2019-03-25T21:39:33.478Z,100179.00
2019-03-25T21:42:04.837Z,100181.00
2019-03-25T21:44:36.231Z,100186.00
2019-03-25T21:47:07.598Z,100189.00
2019-03-25T21:49:39.190Z,100199.00
2019-03-25T21:52:10.575Z,100195.00
2019-03-25T21:54:41.983Z,100203.00
2019-03-25T21:57:13.461Z,100195.00
2019-03-25T21:59:44.854Z,100188.00
2019-03-25T22:02:16.174Z,100188.00
2019-03-25T22:04:47.599Z,100198.00
2019-03-25T22:07:18.949Z,100201.00
2019-03-25T22:09:50.566Z,100213.00
2019-03-25T22:12:21.960Z,100209.00
2019-03-25T22:14:53.404Z,100204.00
2019-03-25T22:17:24.831Z,100215.00
2019-03-25T22:19:56.225Z,100201.00
2019-03-25T22:22:27.756Z,100205.00
2019-03-25T22:24:59.137Z,100212.00
2019-03-25T22:27:30.743Z,100219.00
2019-03-25T22:30:02.425Z,100224.00
2019-03-25T22:32:33.792Z,100221.00
2019-03-25T22:35:05.321Z,100225.00
2019-03-25T22:37:36.797Z,100230.00
2019-03-25T22:40:09.201Z,100238.00
2019-03-25T22:42:40.681Z,100237.00
2019-03-25T22:45:12.052Z,100240.00
2019-03-25T22:47:43.593Z,100245.00
2019-03-25T22:50:31.000Z,100241.00
2019-03-25T22:53:02.353Z,100252.00
2019-03-25T22:55:33.820Z,100235.00
2019-03-25T22:58:05.205Z,100239.00
2019-03-25T23:00:44.021Z,100243.00
2019-03-25T23:03:16.270Z,100243.00
2019-03-25T23:05:48.132Z,100248.00
2019-03-25T23:08:19.497Z,100250.00
2019-03-25T23:10:50.987Z,100256.00
2019-03-25T23:13:22.360Z,100260.00
2019-03-25T23:15:53.787Z,100267.00
2019-03-25T23:18:25.176Z,100266.00
2019-03-25T23:20:56.555Z,100275.00
2019-03-25T23:23:27.959Z,100283.00
2019-03-25T23:25:59.367Z,100285.00
2019-03-25T23:28:30.717Z,100289.00
2019-03-25T23:31:02.081Z,100290.00
2019-03-25T23:33:33.515Z,100288.00
2019-03-25T23:36:05.045Z,100293.00
2019-03-25T23:38:36.512Z,100289.00
2019-03-25T23:41:07.906Z,100299.00
2019-03-25T23:43:39.256Z,100302.00
2019-03-25T23:46:10.645Z,100303.00
2019-03-25T23:48:42.089Z,100302.00
2019-03-25T23:51:13.538Z,100304.00
2019-03-25T23:53:45.123Z,100308.00
2019-03-25T23:56:18.737Z,100305.00
2019-03-25T23:58:49.778Z,100316.00
